createdAt,value
2018-02-10T00:00:13.859Z,22.90
2018-02-10T00:01:13.835Z,24.20
2018-02-10T00:02:13.836Z,23.40
2018-02-10T00:03:13.816Z,22.80
2018-02-10T00:04:13.771Z,24.40
2018-02-10T00:05:13.731Z,23.80
2018-02-10T00:06:13.705Z,23.20
2018-02-10T00:07:13.683Z,23.50
2018-02-10T00:08:13.652Z,23.50
2018-02-10T00:09:13.651Z,22.60
2018-02-10T00:10:13.613Z,24.30
2018-02-10T00:11:13.583Z,24.10
2018-02-10T00:12:13.561Z,23.70
2018-02-10T00:13:13.531Z,23.70
2018-02-10T00:14:13.512Z,25.70
2018-02-10T00:15:13.491Z,23.90
2018-02-10T00:16:13.467Z,25.50
2018-02-10T00:17:13.467Z,24.60
2018-02-10T00:18:13.427Z,24.00
2018-02-10T00:19:13.386Z,24.20
2018-02-10T00:20:13.360Z,24.10
2018-02-10T00:21:13.339Z,23.80
2018-02-10T00:22:13.317Z,24.90
2018-02-10T00:23:13.293Z,24.10
2018-02-10T00:24:13.268Z,24.20
2018-02-10T00:25:13.236Z,25.30
2018-02-10T00:26:13.208Z,25.80
2018-02-10T00:27:13.193Z,25.50
2018-02-10T00:28:13.160Z,25.50
2018-02-10T00:29:13.138Z,25.10
2018-02-10T00:30:13.111Z,25.30
2018-02-10T00:31:13.093Z,25.40
2018-02-10T00:32:13.064Z,25.60
2018-02-10T00:33:13.035Z,24.40
2018-02-10T00:34:13.012Z,24.80
2018-02-10T00:35:12.993Z,24.80
2018-02-10T00:36:12.968Z,25.10
2018-02-10T00:37:12.938Z,25.30
2018-02-10T00:38:12.917Z,24.80
2018-02-10T00:39:12.907Z,24.50
2018-02-10T00:40:12.870Z,25.30
2018-02-10T00:41:12.854Z,25.50
2018-02-10T00:42:12.815Z,25.90
2018-02-10T00:43:12.790Z,26.00
2018-02-10T00:44:12.820Z,24.00
2018-02-10T00:45:12.749Z,25.60
2018-02-10T00:46:12.721Z,24.90
2018-02-10T00:47:12.693Z,25.70
2018-02-10T00:48:12.667Z,25.10
2018-02-10T00:49:12.652Z,27.50
2018-02-10T00:50:12.617Z,25.80
2018-02-10T00:51:12.587Z,25.50
2018-02-10T00:52:12.588Z,25.30
2018-02-10T00:53:12.567Z,24.30
2018-02-10T00:54:12.515Z,26.00
2018-02-10T00:55:12.507Z,25.40
2018-02-10T00:56:12.488Z,25.90
2018-02-10T00:57:12.441Z,24.90
2018-02-10T00:58:12.417Z,26.70
2018-02-10T00:59:12.406Z,25.40
2018-02-10T01:00:12.376Z,25.90
2018-02-10T01:01:12.343Z,25.80
2018-02-10T01:02:12.316Z,26.10
2018-02-10T01:03:12.294Z,27.10
2018-02-10T01:04:12.280Z,27.40
2018-02-10T01:05:12.244Z,26.20
2018-02-10T01:06:12.224Z,25.90
2018-02-10T01:07:12.200Z,26.80
2018-02-10T01:08:12.172Z,25.20
2018-02-10T01:09:12.165Z,25.90
2018-02-10T01:10:12.118Z,27.10
2018-02-10T01:11:12.094Z,25.70
2018-02-10T01:12:12.102Z,27.40
2018-02-10T01:13:12.057Z,28.00
2018-02-10T01:14:12.022Z,26.20
2018-02-10T01:15:12.000Z,26.40
2018-02-10T01:16:11.991Z,26.50
2018-02-10T01:17:11.976Z,27.00
2018-02-10T01:18:11.940Z,26.90
2018-02-10T01:19:11.895Z,26.60
2018-02-10T01:20:11.873Z,28.40
2018-02-10T01:21:11.852Z,28.10
2018-02-10T01:22:11.830Z,27.90
2018-02-10T01:23:11.799Z,27.90
2018-02-10T01:24:11.777Z,27.70
2018-02-10T01:25:11.757Z,26.90
2018-02-10T01:26:11.743Z,27.20
2018-02-10T01:27:11.701Z,29.40
2018-02-10T01:28:11.674Z,29.20
2018-02-10T01:29:11.676Z,29.30
2018-02-10T01:30:11.627Z,27.30
2018-02-10T01:31:11.624Z,30.40
2018-02-10T01:32:11.607Z,27.40
2018-02-10T01:33:11.547Z,27.80
2018-02-10T01:34:11.548Z,28.30
2018-02-10T01:35:11.508Z,27.20
2018-02-10T01:36:11.482Z,27.30
2018-02-10T01:37:11.451Z,27.60
2018-02-10T01:38:11.426Z,29.20
2018-02-10T01:39:11.415Z,30.00
2018-02-10T01:40:11.381Z,30.10
2018-02-10T01:41:11.350Z,27.90
2018-02-10T01:42:11.329Z,28.50
2018-02-10T01:43:11.318Z,28.90
2018-02-10T01:44:11.302Z,28.20
2018-02-10T01:45:11.265Z,30.40
2018-02-10T01:46:11.229Z,29.90
2018-02-10T01:47:11.222Z,28.80
2018-02-10T01:48:11.217Z,30.30
2018-02-10T01:49:11.177Z,30.20
2018-02-10T01:50:11.131Z,31.70
2018-02-10T01:51:11.109Z,29.10
2018-02-10T01:52:11.081Z,31.10
2018-02-10T01:53:11.057Z,29.80
2018-02-10T01:54:11.030Z,30.40
2018-02-10T01:55:11.002Z,29.50
2018-02-10T01:56:10.983Z,29.20
2018-02-10T01:57:10.959Z,31.40
2018-02-10T01:58:10.935Z,30.70
2018-02-10T01:59:10.911Z,29.50
2018-02-10T02:00:10.883Z,30.50
2018-02-10T02:01:10.860Z,32.70
2018-02-10T02:02:10.835Z,30.60
2018-02-10T02:03:10.819Z,32.30
2018-02-10T02:04:10.783Z,31.20
2018-02-10T02:05:17.728Z,33.40
2018-02-10T02:06:10.738Z,33.40
2018-02-10T02:07:10.708Z,32.10
2018-02-10T02:08:10.726Z,36.60
2018-02-10T02:09:10.657Z,35.80
2018-02-10T02:10:10.638Z,36.00
2018-02-10T02:11:10.609Z,36.00
2018-02-10T02:12:10.582Z,34.50
2018-02-10T02:13:10.578Z,34.50
2018-02-10T02:14:10.539Z,35.30
2018-02-10T02:15:10.508Z,37.20
2018-02-10T02:16:10.493Z,37.60
2018-02-10T02:17:10.503Z,37.60
2018-02-10T02:18:10.436Z,37.60
2018-02-10T02:19:10.411Z,37.80
2018-02-10T02:20:10.386Z,33.90
2018-02-10T02:21:10.367Z,37.60
2018-02-10T02:22:10.345Z,33.70
2018-02-10T02:23:10.323Z,37.30
2018-02-10T02:24:10.285Z,37.00
2018-02-10T02:25:10.267Z,36.00
2018-02-10T02:26:10.236Z,35.70
2018-02-10T02:27:10.211Z,37.00
2018-02-10T02:28:10.188Z,41.70
2018-02-10T02:29:10.160Z,39.70
2018-02-10T02:30:10.146Z,43.20
2018-02-10T02:31:10.114Z,36.20
2018-02-10T02:32:10.103Z,35.30
2018-02-10T02:33:10.090Z,40.50
2018-02-10T02:34:10.067Z,37.40
2018-02-10T02:35:10.012Z,38.80
2018-02-10T02:36:09.992Z,41.30
2018-02-10T02:37:09.963Z,40.20
2018-02-10T02:38:09.937Z,35.90
2018-02-10T02:39:09.914Z,36.10
2018-02-10T02:40:09.898Z,38.90
2018-02-10T02:41:09.869Z,45.20
2018-02-10T02:42:09.853Z,38.20
2018-02-10T02:43:09.819Z,36.20
2018-02-10T02:44:09.791Z,40.10
2018-02-10T02:45:09.778Z,37.60
2018-02-10T02:46:09.746Z,36.60
2018-02-10T02:47:09.721Z,36.90
2018-02-10T02:48:09.700Z,37.10
2018-02-10T02:49:09.691Z,37.00
2018-02-10T02:50:09.652Z,41.50
2018-02-10T02:51:09.620Z,38.40
2018-02-10T02:52:09.592Z,38.10
2018-02-10T02:53:09.586Z,38.90
2018-02-10T02:54:09.546Z,39.30
2018-02-10T02:55:09.521Z,37.00
2018-02-10T02:56:09.498Z,40.80
2018-02-10T02:57:09.481Z,40.50
2018-02-10T02:58:09.447Z,38.20
2018-02-10T02:59:09.422Z,39.60
2018-02-10T03:00:09.402Z,38.40
2018-02-10T03:01:09.366Z,40.50
2018-02-10T03:02:09.358Z,40.10
2018-02-10T03:03:09.326Z,44.20
2018-02-10T03:04:09.304Z,42.30
2018-02-10T03:05:09.272Z,37.90
2018-02-10T03:06:09.250Z,38.90
2018-02-10T03:07:09.223Z,37.60
2018-02-10T03:08:09.200Z,38.40
2018-02-10T03:09:09.190Z,38.10
2018-02-10T03:10:09.158Z,42.10
2018-02-10T03:11:09.127Z,39.30
2018-02-10T03:12:09.117Z,43.20
2018-02-10T03:13:09.075Z,38.70
2018-02-10T03:14:09.053Z,41.50
2018-02-10T03:15:09.028Z,40.10
2018-02-10T03:16:09.010Z,41.70
2018-02-10T03:17:08.974Z,38.00
2018-02-10T03:18:08.955Z,42.10
2018-02-10T03:19:08.926Z,42.40
2018-02-10T03:20:08.903Z,42.40
2018-02-10T03:21:08.875Z,42.60
2018-02-10T03:22:08.851Z,43.40
2018-02-10T03:23:08.828Z,42.20
2018-02-10T03:24:08.803Z,40.70
2018-02-10T03:25:08.778Z,43.20
2018-02-10T03:26:08.753Z,39.80
2018-02-10T03:27:08.727Z,38.60
2018-02-10T03:28:08.712Z,40.60
2018-02-10T03:29:08.684Z,42.00
2018-02-10T03:30:08.667Z,41.70
2018-02-10T03:31:08.631Z,45.10
2018-02-10T03:32:08.610Z,43.70
2018-02-10T03:33:08.576Z,40.50
2018-02-10T03:34:08.556Z,43.90
2018-02-10T03:35:08.533Z,41.40
2018-02-10T03:36:08.505Z,42.20
2018-02-10T03:37:08.490Z,39.70
2018-02-10T03:38:08.468Z,41.50
2018-02-10T03:39:08.430Z,39.50
2018-02-10T03:40:08.409Z,41.40
2018-02-10T03:41:08.380Z,38.90
2018-02-10T03:42:08.356Z,43.30
2018-02-10T03:43:08.332Z,42.40
2018-02-10T03:44:08.300Z,41.90
2018-02-10T03:45:08.284Z,41.20
2018-02-10T03:46:08.260Z,41.50
2018-02-10T03:47:08.235Z,42.80
2018-02-10T03:48:08.205Z,44.10
2018-02-10T03:49:08.187Z,41.60
2018-02-10T03:50:08.159Z,43.40
2018-02-10T03:51:08.139Z,43.90
2018-02-10T03:52:08.108Z,44.30
2018-02-10T03:53:08.080Z,41.30
2018-02-10T03:54:08.081Z,42.40
2018-02-10T03:55:08.028Z,43.20
2018-02-10T03:56:08.011Z,42.60
2018-02-10T03:57:07.977Z,44.30
2018-02-10T03:58:07.980Z,42.90
2018-02-10T03:59:07.935Z,44.20
2018-02-10T04:00:07.907Z,39.90
2018-02-10T04:01:07.885Z,41.60
2018-02-10T04:02:07.870Z,41.00
2018-02-10T04:03:07.848Z,39.00
2018-02-10T04:04:07.813Z,42.60
2018-02-10T04:05:07.798Z,44.20
2018-02-10T04:06:07.761Z,41.30
2018-02-10T04:07:07.736Z,41.90
2018-02-10T04:08:07.722Z,41.60
2018-02-10T04:09:07.682Z,41.80
2018-02-10T04:10:07.663Z,41.80
2018-02-10T04:11:07.636Z,42.50
2018-02-10T04:12:07.612Z,44.30
2018-02-10T04:13:07.588Z,43.20
2018-02-10T04:14:07.559Z,43.00
2018-02-10T04:15:07.557Z,43.70
2018-02-10T04:16:07.524Z,42.30
2018-02-10T04:17:07.488Z,42.50
2018-02-10T04:18:07.463Z,43.10
2018-02-10T04:19:07.437Z,44.70
2018-02-10T04:20:07.410Z,41.70
2018-02-10T04:21:07.388Z,42.50
2018-02-10T04:22:07.363Z,42.80
2018-02-10T04:23:07.332Z,43.10
2018-02-10T04:24:07.322Z,43.60
2018-02-10T04:25:07.290Z,43.00
2018-02-10T04:26:07.260Z,41.40
2018-02-10T04:27:07.243Z,43.30
2018-02-10T04:28:07.214Z,42.50
2018-02-10T04:29:07.189Z,42.50
2018-02-10T04:30:07.174Z,45.40
2018-02-10T04:31:07.145Z,42.90
2018-02-10T04:32:07.113Z,43.30
2018-02-10T04:33:07.087Z,43.80
2018-02-10T04:34:07.074Z,44.60
2018-02-10T04:35:07.043Z,43.80
2018-02-10T04:36:07.014Z,46.00
2018-02-10T04:37:06.990Z,44.60
2018-02-10T04:38:06.967Z,44.70
2018-02-10T04:39:06.935Z,44.70
2018-02-10T04:40:06.930Z,43.10
2018-02-10T04:41:06.889Z,44.80
2018-02-10T04:42:06.866Z,46.10
2018-02-10T04:43:06.846Z,45.30
2018-02-10T04:44:06.815Z,44.70
2018-02-10T04:45:06.811Z,48.80
2018-02-10T04:46:06.765Z,49.70
2018-02-10T04:47:06.744Z,49.10
2018-02-10T04:48:06.741Z,47.70
2018-02-10T04:49:06.687Z,50.30
2018-02-10T04:50:06.664Z,49.40
2018-02-10T04:51:06.644Z,48.90
2018-02-10T04:52:06.616Z,47.60
2018-02-10T04:53:06.588Z,49.80
2018-02-10T04:54:06.576Z,47.80
2018-02-10T04:55:06.544Z,51.90
2018-02-10T04:56:06.517Z,46.30
2018-02-10T04:57:06.491Z,47.10
2018-02-10T04:58:06.467Z,47.00
2018-02-10T04:59:06.452Z,47.00
2018-02-10T05:00:06.418Z,46.30
2018-02-10T05:01:06.392Z,48.70
2018-02-10T05:02:06.365Z,50.00
2018-02-10T05:03:06.344Z,49.40
2018-02-10T05:04:06.319Z,51.30
2018-02-10T05:05:06.293Z,49.80
2018-02-10T05:06:06.277Z,51.00
2018-02-10T05:07:06.244Z,53.30
2018-02-10T05:08:06.234Z,44.60
2018-02-10T05:09:06.193Z,47.90
2018-02-10T05:10:06.163Z,49.20
2018-02-10T05:11:06.142Z,46.40
2018-02-10T05:12:06.128Z,45.80
2018-02-10T05:13:06.090Z,46.80
2018-02-10T05:14:06.069Z,43.80
2018-02-10T05:15:06.043Z,45.00
2018-02-10T05:16:06.019Z,46.00
2018-02-10T05:17:05.994Z,43.20
2018-02-10T05:18:05.970Z,44.60
2018-02-10T05:19:05.942Z,43.40
2018-02-10T05:20:05.925Z,46.40
2018-02-10T05:21:05.890Z,42.00
2018-02-10T05:22:05.868Z,43.40
2018-02-10T05:23:05.841Z,42.20
2018-02-10T05:24:05.825Z,42.60
2018-02-10T05:25:05.793Z,41.80
2018-02-10T05:26:05.769Z,42.50
2018-02-10T05:27:05.747Z,40.00
2018-02-10T05:28:05.728Z,43.80
2018-02-10T05:29:05.709Z,42.40
2018-02-10T05:30:05.692Z,39.70
2018-02-10T05:31:05.660Z,44.60
2018-02-10T05:32:05.623Z,42.80
2018-02-10T05:33:05.594Z,40.30
2018-02-10T05:34:05.597Z,38.30
2018-02-10T05:35:05.565Z,39.90
2018-02-10T05:36:05.539Z,40.20
2018-02-10T05:37:05.498Z,40.10
2018-02-10T05:38:05.474Z,43.10
2018-02-10T05:39:05.449Z,39.60
2018-02-10T05:40:05.426Z,42.40
2018-02-10T05:41:05.398Z,39.50
2018-02-10T05:42:05.385Z,39.70
2018-02-10T05:43:05.348Z,42.30
2018-02-10T05:44:05.328Z,38.90
2018-02-10T05:45:05.307Z,41.10
2018-02-10T05:46:05.271Z,41.30
2018-02-10T05:47:05.274Z,41.60
2018-02-10T05:48:05.239Z,42.30
2018-02-10T05:49:05.201Z,41.10
2018-02-10T05:50:05.186Z,39.40
2018-02-10T05:51:05.152Z,40.40
2018-02-10T05:52:05.142Z,41.60
2018-02-10T05:53:05.102Z,40.10
2018-02-10T05:54:05.082Z,41.20
2018-02-10T05:55:05.056Z,40.30
2018-02-10T05:56:05.025Z,40.30
2018-02-10T05:57:04.999Z,40.60
2018-02-10T05:58:04.978Z,41.20
2018-02-10T05:59:04.956Z,41.50
2018-02-10T06:00:04.925Z,38.80
2018-02-10T06:01:04.905Z,39.00
2018-02-10T06:02:04.883Z,37.30
2018-02-10T06:03:04.854Z,39.90
2018-02-10T06:04:04.835Z,39.00
2018-02-10T06:05:04.824Z,41.60
2018-02-10T06:06:04.785Z,40.20
2018-02-10T06:07:04.759Z,38.40
2018-02-10T06:08:04.734Z,43.80
2018-02-10T06:09:04.709Z,38.50
2018-02-10T06:10:04.686Z,36.10
2018-02-10T06:11:04.660Z,36.50
2018-02-10T06:12:04.641Z,39.80
2018-02-10T06:13:04.611Z,36.20
2018-02-10T06:14:04.585Z,36.70
2018-02-10T06:15:04.569Z,38.70
2018-02-10T06:16:04.540Z,39.70
2018-02-10T06:17:04.507Z,38.30
2018-02-10T06:18:04.485Z,37.00
2018-02-10T06:19:04.463Z,38.80
2018-02-10T06:20:04.434Z,39.70
2018-02-10T06:21:04.411Z,39.00
2018-02-10T06:22:04.392Z,35.90
2018-02-10T06:23:04.363Z,35.50
2018-02-10T06:24:04.336Z,36.10
2018-02-10T06:25:04.311Z,36.80
2018-02-10T06:26:04.293Z,36.60
2018-02-10T06:27:04.272Z,34.50
2018-02-10T06:28:04.239Z,34.60
2018-02-10T06:29:04.216Z,34.30
2018-02-10T06:30:04.191Z,35.30
2018-02-10T06:31:04.168Z,36.00
2018-02-10T06:32:04.144Z,33.80
2018-02-10T06:33:04.122Z,34.00
2018-02-10T06:34:04.099Z,35.10
2018-02-10T06:35:04.069Z,35.80
2018-02-10T06:36:04.041Z,35.20
2018-02-10T06:37:04.033Z,35.50
2018-02-10T06:38:03.995Z,33.40
2018-02-10T06:39:03.971Z,35.60
2018-02-10T06:40:03.948Z,34.10
2018-02-10T06:41:03.922Z,36.00
2018-02-10T06:42:03.918Z,34.40
2018-02-10T06:43:03.879Z,33.70
2018-02-10T06:44:03.861Z,35.50
2018-02-10T06:45:03.823Z,35.50
2018-02-10T06:46:03.833Z,35.80
2018-02-10T06:47:03.770Z,33.70
2018-02-10T06:48:03.753Z,32.80
2018-02-10T06:49:03.721Z,33.50
2018-02-10T11:18:17.194Z,33.60
2018-02-10T11:19:17.153Z,36.80
2018-02-10T11:20:17.123Z,36.70
2018-02-10T11:21:17.097Z,37.40
2018-02-10T11:22:17.104Z,35.70
2018-02-10T11:23:17.049Z,35.30
2018-02-10T11:24:17.033Z,36.30
2018-02-10T11:25:17.002Z,36.50
2018-02-10T11:26:16.974Z,35.70
2018-02-10T11:27:16.949Z,35.50
2018-02-10T11:28:16.927Z,35.90
2018-02-10T11:29:16.902Z,34.40
2018-02-10T11:30:16.878Z,35.70
2018-02-10T11:31:16.852Z,37.90
2018-02-10T11:32:16.829Z,38.30
2018-02-10T11:33:16.803Z,35.90
2018-02-10T11:34:16.780Z,36.20
2018-02-10T11:35:16.757Z,35.50
2018-02-10T11:36:16.732Z,34.50
2018-02-10T11:37:16.706Z,35.10
2018-02-10T11:38:16.683Z,34.00
2018-02-10T11:39:16.661Z,35.40
2018-02-10T11:40:16.637Z,35.30
2018-02-10T11:41:16.613Z,36.20
2018-02-10T11:42:16.590Z,35.60
2018-02-10T11:43:16.564Z,34.10
2018-02-10T11:44:16.540Z,36.50
2018-02-10T11:45:16.527Z,35.20
2018-02-10T11:46:16.492Z,33.60
2018-02-10T11:47:16.469Z,34.70
2018-02-10T11:48:16.447Z,34.00
2018-02-10T11:49:16.434Z,36.60
2018-02-10T11:50:16.402Z,34.10
2018-02-10T11:51:16.374Z,34.60
2018-02-10T11:52:16.355Z,34.10
2018-02-10T11:53:16.327Z,34.50
2018-02-10T11:54:16.308Z,34.90
2018-02-10T11:55:16.288Z,33.00
2018-02-10T11:56:16.258Z,33.00
2018-02-10T11:57:16.233Z,33.90
2018-02-10T11:58:16.208Z,34.10
2018-02-10T11:59:16.187Z,32.90
2018-02-10T12:00:16.162Z,33.40
2018-02-10T12:01:16.141Z,34.70
2018-02-10T12:02:16.116Z,33.00
2018-02-10T12:03:16.092Z,34.30
2018-02-10T12:04:16.071Z,35.10
2018-02-10T12:05:16.052Z,32.00
2018-02-10T12:06:16.023Z,35.80
2018-02-10T12:07:16.001Z,32.40
2018-02-10T12:08:15.978Z,33.90
2018-02-10T12:09:15.954Z,30.50
2018-02-10T12:10:15.931Z,32.50
2018-02-10T12:11:15.908Z,33.60
2018-02-10T12:12:15.886Z,31.30
2018-02-10T12:13:15.861Z,31.80
2018-02-10T12:14:15.836Z,35.90
2018-02-10T12:15:15.816Z,34.70
2018-02-10T12:16:15.795Z,33.00
2018-02-10T12:17:15.772Z,34.10
2018-02-10T12:18:15.747Z,30.60
2018-02-10T12:19:15.728Z,30.60
2018-02-10T12:20:15.704Z,30.70
2018-02-10T12:21:15.679Z,32.50
2018-02-10T12:22:15.657Z,30.70
2018-02-10T12:23:15.634Z,30.20
2018-02-10T12:24:15.611Z,30.50
2018-02-10T12:25:15.629Z,30.20
2018-02-10T12:26:15.566Z,31.60
2018-02-10T12:27:15.547Z,30.90
2018-02-10T12:28:15.522Z,30.10
2018-02-10T12:29:15.502Z,28.50
2018-02-10T12:30:15.476Z,28.60
2018-02-10T12:31:15.459Z,30.00
2018-02-10T12:32:15.442Z,27.00
2018-02-10T12:33:15.408Z,29.20
2018-02-10T12:34:15.390Z,28.10
2018-02-10T12:35:15.367Z,31.10
2018-02-10T12:36:15.341Z,30.50
2018-02-10T12:37:15.317Z,31.90
2018-02-10T12:38:15.294Z,30.30
2018-02-10T12:39:15.275Z,30.70
2018-02-10T12:40:15.250Z,32.20
2018-02-10T12:41:15.232Z,31.50
2018-02-10T12:42:15.206Z,28.30
2018-02-10T12:43:15.182Z,30.30
2018-02-10T12:44:15.163Z,29.00
2018-02-10T12:45:15.136Z,29.70
2018-02-10T12:46:15.115Z,28.50
2018-02-10T12:47:15.091Z,30.30
2018-02-10T12:48:15.065Z,28.20
2018-02-10T12:49:15.045Z,30.90
2018-02-10T12:50:15.027Z,31.80
2018-02-10T12:51:15.008Z,33.20
2018-02-10T12:52:14.977Z,29.90
2018-02-10T12:53:14.954Z,29.60
2018-02-10T12:54:14.932Z,30.80
2018-02-10T12:55:14.908Z,31.90
2018-02-10T12:56:14.890Z,30.20
2018-02-10T12:57:14.864Z,29.30
2018-02-10T12:58:14.839Z,33.30
2018-02-10T12:59:14.816Z,29.50
2018-02-10T13:00:14.794Z,27.20
2018-02-10T13:01:14.771Z,27.70
2018-02-10T13:02:14.784Z,30.60
2018-02-10T13:03:14.733Z,28.40
2018-02-10T13:04:14.704Z,31.70
2018-02-10T13:05:14.678Z,27.60
2018-02-10T13:06:14.659Z,26.20
2018-02-10T13:07:14.635Z,33.10
2018-02-10T13:08:14.612Z,28.50
2018-02-10T13:09:14.589Z,29.70
2018-02-10T13:10:14.564Z,27.70
2018-02-10T13:11:14.544Z,29.70
2018-02-10T13:12:14.520Z,31.60
2018-02-10T13:13:14.496Z,31.90
2018-02-10T13:14:14.478Z,27.30
2018-02-10T13:15:14.459Z,31.70
2018-02-10T13:16:14.429Z,30.50
2018-02-10T13:17:14.404Z,33.60
2018-02-10T13:18:14.382Z,34.80
2018-02-10T13:19:14.356Z,31.20
2018-02-10T13:20:14.335Z,31.60
2018-02-10T13:21:14.313Z,33.70
2018-02-10T13:22:14.294Z,34.10
2018-02-10T13:23:14.271Z,31.40
2018-02-10T13:24:14.246Z,29.80
2018-02-10T13:25:14.221Z,34.10
2018-02-10T13:26:14.200Z,30.40
2018-02-10T13:27:14.178Z,31.70
2018-02-10T13:28:14.153Z,29.10
2018-02-10T13:29:14.133Z,29.70
2018-02-10T13:30:14.108Z,33.80
2018-02-10T13:31:14.088Z,35.10
2018-02-10T13:32:14.063Z,34.00
2018-02-10T13:33:14.039Z,28.50
2018-02-10T13:34:14.018Z,31.90
2018-02-10T13:35:13.995Z,33.80
2018-02-10T13:36:13.972Z,31.40
2018-02-10T13:37:13.952Z,30.90
2018-02-10T13:38:13.926Z,30.30
2018-02-10T13:39:13.905Z,32.20
2018-02-10T13:40:13.877Z,30.70
2018-02-10T13:41:13.859Z,33.80
2018-02-10T13:42:13.833Z,34.80
2018-02-10T13:43:13.814Z,31.80
2018-02-10T13:44:13.792Z,35.10
2018-02-10T13:45:13.768Z,31.80
2018-02-10T13:46:13.745Z,30.70
2018-02-10T13:47:13.723Z,31.80
2018-02-10T13:48:13.701Z,31.80
2018-02-10T13:49:13.679Z,30.60
2018-02-10T13:50:13.657Z,33.00
2018-02-10T13:51:13.632Z,31.00
2018-02-10T13:52:13.609Z,32.70
2018-02-10T13:53:13.586Z,29.80
2018-02-10T13:54:13.563Z,36.10
2018-02-10T13:55:13.542Z,32.10
2018-02-10T13:56:13.519Z,31.60
2018-02-10T13:57:13.494Z,34.70
2018-02-10T13:58:13.476Z,33.60
2018-02-10T13:59:13.447Z,29.30
2018-02-10T14:00:13.428Z,39.60
2018-02-10T14:01:13.401Z,34.60
2018-02-10T14:02:13.382Z,40.20
2018-02-10T14:03:13.361Z,37.80
2018-02-10T14:04:13.332Z,34.80
2018-02-10T14:05:13.314Z,39.40
2018-02-10T14:06:13.293Z,33.80
2018-02-10T14:07:13.270Z,27.20
2018-02-10T14:08:13.243Z,32.50
2018-02-10T14:09:13.226Z,31.70
2018-02-10T14:10:13.202Z,36.10
2018-02-10T14:11:13.178Z,31.80
2018-02-10T14:12:13.160Z,30.40
2018-02-10T14:13:13.134Z,27.50
2018-02-10T14:14:13.113Z,38.10
2018-02-10T14:15:13.091Z,32.60
2018-02-10T14:16:13.086Z,29.60
2018-02-10T14:17:13.044Z,28.90
2018-02-10T14:18:13.022Z,34.30
2018-02-10T14:19:13.002Z,29.00
2018-02-10T14:20:12.976Z,39.80
2018-02-10T14:21:12.953Z,34.60
2018-02-10T14:22:12.933Z,32.10
2018-02-10T14:23:12.908Z,34.90
2018-02-10T14:24:12.889Z,32.00
2018-02-10T14:25:12.867Z,33.40
2018-02-10T14:26:12.843Z,30.30
2018-02-10T14:27:12.819Z,35.90
2018-02-10T14:28:12.807Z,36.80
2018-02-10T14:29:12.778Z,39.50
2018-02-10T14:30:12.788Z,37.70
2018-02-10T14:31:12.740Z,34.40
2018-02-10T14:32:12.704Z,36.10
2018-02-10T14:33:12.682Z,42.00
2018-02-10T14:34:12.661Z,37.50
2018-02-10T14:35:12.641Z,45.60
2018-02-10T14:36:12.616Z,37.70
2018-02-10T14:37:12.595Z,37.70
2018-02-10T14:38:12.575Z,38.60
2018-02-10T14:39:12.548Z,34.70
2018-02-10T14:40:12.525Z,35.90
2018-02-10T14:41:12.530Z,40.40
2018-02-10T14:42:12.481Z,42.50
2018-02-10T14:43:12.460Z,39.90
2018-02-10T14:44:12.437Z,39.30
2018-02-10T14:45:12.416Z,39.30
2018-02-10T14:46:12.392Z,37.00
2018-02-10T14:47:12.368Z,42.20
2018-02-10T14:48:12.346Z,38.20
2018-02-10T14:49:12.327Z,37.80
2018-02-10T14:50:12.303Z,38.40
2018-02-10T14:51:12.280Z,40.30
2018-02-10T14:52:12.258Z,44.40
2018-02-10T14:53:12.235Z,39.10
2018-02-10T14:54:12.213Z,40.00
2018-02-10T14:55:12.190Z,45.20
2018-02-10T14:56:12.164Z,53.10
2018-02-10T14:57:12.145Z,39.40
2018-02-10T14:58:12.123Z,39.40
2018-02-10T14:59:12.106Z,43.80
2018-02-10T15:00:12.080Z,38.30
2018-02-10T15:01:12.057Z,39.90
2018-02-10T15:02:12.035Z,42.80
2018-02-10T15:03:12.012Z,45.50
2018-02-10T15:04:11.992Z,45.00
2018-02-10T15:05:11.970Z,38.90
2018-02-10T15:06:11.948Z,44.30
2018-02-10T15:07:11.930Z,46.70
2018-02-10T15:08:11.904Z,38.30
2018-02-10T15:09:11.881Z,51.60
2018-02-10T15:10:11.859Z,41.20
2018-02-10T15:11:11.846Z,41.10
2018-02-10T15:12:11.815Z,48.90
2018-02-10T15:13:11.829Z,41.60
2018-02-10T15:14:11.775Z,41.00
2018-02-10T15:15:11.748Z,38.60
2018-02-10T15:16:11.731Z,39.40
2018-02-10T15:17:11.707Z,42.30
2018-02-10T15:18:11.678Z,42.90
2018-02-10T15:19:11.676Z,42.70
2018-02-10T15:20:11.638Z,43.00
2018-02-10T15:21:11.616Z,34.30
2018-02-10T15:22:11.591Z,41.00
2018-02-10T15:23:11.571Z,38.50
2018-02-10T15:24:11.552Z,33.00
2018-02-10T15:25:11.525Z,32.30
2018-02-10T15:26:11.544Z,39.10
2018-02-10T15:27:11.483Z,40.00
2018-02-10T15:28:11.460Z,42.40
2018-02-10T15:29:11.435Z,39.80
2018-02-10T15:30:11.414Z,34.00
2018-02-10T15:31:11.393Z,31.80
2018-02-10T15:32:11.371Z,35.50
2018-02-10T15:33:11.347Z,37.20
2018-02-10T15:34:11.328Z,33.60
2018-02-10T15:35:11.302Z,35.00
2018-02-10T15:36:11.281Z,38.70
2018-02-10T15:37:11.259Z,34.80
2018-02-10T15:38:11.238Z,36.50
2018-02-10T15:39:11.213Z,40.90
2018-02-10T15:40:11.194Z,38.50
2018-02-10T15:41:11.168Z,35.10
2018-02-10T15:42:11.146Z,37.40
2018-02-10T15:43:11.125Z,38.80
2018-02-10T15:44:11.103Z,31.00
2018-02-10T15:45:11.080Z,37.00
2018-02-10T15:46:11.057Z,37.40
2018-02-10T15:47:11.033Z,43.30
2018-02-10T15:48:11.013Z,35.80
2018-02-10T15:49:10.991Z,34.40
2018-02-10T15:50:10.967Z,37.50
2018-02-10T15:51:10.976Z,33.60
2018-02-10T15:52:10.923Z,34.90
2018-02-10T15:53:10.900Z,37.20
2018-02-10T15:54:10.879Z,37.80
2018-02-10T15:55:10.856Z,39.80
2018-02-10T15:56:10.835Z,34.40
2018-02-10T15:57:10.808Z,38.80
2018-02-10T15:58:10.789Z,30.90
2018-02-10T15:59:10.767Z,41.70
2018-02-10T16:00:10.744Z,37.60
2018-02-10T16:01:10.720Z,38.00
2018-02-10T16:02:10.700Z,38.50
2018-02-10T16:03:10.676Z,37.10
2018-02-10T16:04:10.655Z,35.90
2018-02-10T16:05:10.631Z,35.20
2018-02-10T16:06:10.611Z,37.00
2018-02-10T16:07:10.588Z,34.80
2018-02-10T16:08:10.566Z,40.10
2018-02-10T16:09:10.542Z,33.50
2018-02-10T16:10:10.523Z,39.80
2018-02-10T16:11:10.504Z,37.80
2018-02-10T16:12:10.477Z,38.10
2018-02-10T16:13:10.452Z,36.60
2018-02-10T16:14:10.431Z,39.30
2018-02-10T16:15:10.409Z,38.60
2018-02-10T16:16:10.387Z,44.70
2018-02-10T16:17:10.364Z,37.30
2018-02-10T16:18:10.339Z,40.30
2018-02-10T16:19:10.318Z,39.70
2018-02-10T16:20:10.296Z,36.50
2018-02-10T16:21:10.277Z,34.50
2018-02-10T16:22:10.253Z,37.30
2018-02-10T16:23:10.230Z,36.80
2018-02-10T16:24:10.206Z,34.70
2018-02-10T16:25:10.184Z,39.70
2018-02-10T16:26:10.162Z,40.00
2018-02-10T16:27:10.139Z,39.50
2018-02-10T16:28:10.115Z,40.10
2018-02-10T16:29:10.092Z,39.40
2018-02-10T16:30:10.069Z,37.80
2018-02-10T16:31:10.046Z,38.20
2018-02-10T16:32:10.031Z,38.00
2018-02-10T16:33:10.033Z,37.40
2018-02-10T16:34:09.980Z,40.10
2018-02-10T16:35:09.958Z,41.20
2018-02-10T16:36:09.938Z,34.90
2018-02-10T16:37:09.909Z,36.20
2018-02-10T16:38:09.888Z,36.10
2018-02-10T16:39:09.868Z,36.70
2018-02-10T16:40:09.844Z,34.10
2018-02-10T16:41:09.821Z,31.60
2018-02-10T16:42:09.796Z,36.60
2018-02-10T16:43:09.810Z,38.50
2018-02-10T16:44:09.751Z,40.30
2018-02-10T16:45:09.727Z,35.40
2018-02-10T16:46:09.703Z,36.90
2018-02-10T16:47:09.688Z,34.90
2018-02-10T16:48:09.659Z,34.90
2018-02-10T16:49:09.633Z,35.60
2018-02-10T16:50:09.612Z,38.70
2018-02-10T16:51:09.591Z,36.50
2018-02-10T16:52:09.567Z,39.90
2018-02-10T16:53:09.542Z,36.90
2018-02-10T16:54:09.521Z,39.40
2018-02-10T16:55:09.498Z,37.30
2018-02-10T16:56:09.477Z,34.40
2018-02-10T16:57:09.451Z,38.20
2018-02-10T16:58:09.429Z,39.10
2018-02-10T16:59:09.407Z,34.80
2018-02-10T17:00:09.383Z,35.80
2018-02-10T17:01:09.360Z,34.10
2018-02-10T17:02:09.338Z,35.70
2018-02-10T17:03:09.316Z,35.10
2018-02-10T17:04:09.291Z,37.90
2018-02-10T17:05:09.267Z,35.70
2018-02-10T17:06:09.245Z,40.30
2018-02-10T17:07:09.221Z,35.10
2018-02-10T17:08:09.199Z,40.00
2018-02-10T17:09:09.175Z,35.60
2018-02-10T17:10:09.153Z,32.00
2018-02-10T17:11:09.130Z,38.40
2018-02-10T17:12:09.106Z,31.00
2018-02-10T17:13:09.083Z,36.10
2018-02-10T17:14:09.059Z,31.40
2018-02-10T17:15:09.033Z,39.00
2018-02-10T17:16:09.016Z,36.00
2018-02-10T17:17:08.990Z,29.90
2018-02-10T17:18:08.966Z,31.40
2018-02-10T17:19:08.944Z,35.40
2018-02-10T17:20:08.922Z,37.50